Stations météo

réclame
Mon MeteoGroup
Toulon Arsenal, France (7660): Température de l'air & dewpoint: 22.02.2020 19:00:00 - 28.02.2020 19:00:00 (CET)Toulon Arsenal, France (7660): Vitesse du vent & gusts: 22.02.2020 19:00:00 - 28.02.2020 19:00:00 (CET)Toulon Arsenal, France (7660): Direction du vent: 22.02.2020 19:00:00 - 28.02.2020 19:00:00 (CET)Toulon Arsenal, France (7660): reduced air pressure: 22.02.2020 19:00:00 - 28.02.2020 19:00:00 (CET)Toulon Arsenal, France (7660): Quantités de précipitations: 22.02.2020 19:00:00 - 28.02.2020 19:00:00 (CET)
Date & Time tt [°C] td [°C] ff [km/h] ff [knt] fx [km/h] fx [knt] dd ppp [hPa] rr [mm]
28.02.2020 19:00:00 - - - - - - - - -
28.02.2020 18:00:00 14,0 2,9 9 5 22 12 WSW 1018,6 0,0
28.02.2020 17:00:00 15,5 3,0 11 6 39 21 W 1018,5 0,0
28.02.2020 16:00:00 15,6 2,0 16 9 29 16 WSW 1018,6 0,0
28.02.2020 15:00:00 16,5 1,7 16 9 29 16 SW 1018,4 0,0
28.02.2020 14:00:00 16,5 0,6 9 5 26 14 SW 1018,4 0,0
28.02.2020 13:00:00 15,4 1,9 18 10 29 16 SW 1018,9 -
28.02.2020 12:00:00 16,8 -6,3 5 3 28 15 NNW 1019,0 0,0
28.02.2020 11:00:00 13,3 -0,7 15 8 41 22 W 1018,7 0,0
28.02.2020 10:00:00 11,7 -1,5 22 12 39 21 SW 1018,2 0,0
28.02.2020 09:00:00 10,4 -2,0 13 7 35 19 WSW 1018,0 0,0
28.02.2020 08:00:00 9,0 -5,7 9 5 31 17 W 1017,8 0,0
28.02.2020 07:00:00 8,7 -5,9 15 8 37 20 W 1016,2 -
28.02.2020 06:00:00 8,9 -4,7 15 8 37 20 W 1015,2 0,0
28.02.2020 05:00:00 9,6 -3,7 13 7 57 31 WSW 1014,5 0,0
28.02.2020 04:00:00 10,5 -4,7 22 12 67 36 WNW 1013,3 0,0
28.02.2020 03:00:00 10,5 -0,9 29 16 65 35 WNW 1013,2 0,0
28.02.2020 02:00:00 11,3 0,1 28 15 54 29 WNW 1012,4 0,0
28.02.2020 01:00:00 12,0 1,3 28 15 54 29 WNW 1012,3 -
28.02.2020 00:00:00 12,9 4,8 26 14 52 28 WNW 1012,2 0,0
27.02.2020 23:00:00 13,6 7,6 22 12 42 23 WNW 1011,7 0,0
27.02.2020 22:00:00 13,9 9,7 22 12 44 24 W 1011,2 0,0
27.02.2020 21:00:00 13,6 10,4 22 12 59 32 W 1010,4 0,0
27.02.2020 20:00:00 13,9 10,1 26 14 55 30 W 1010,2 0,0
27.02.2020 19:00:00 13,7 9,7 22 12 48 26 W 1010,4 -
27.02.2020 18:00:00 13,3 9,4 18 10 35 19 W 1010,4 0,0
27.02.2020 17:00:00 12,4 9,6 15 8 28 15 WNW 1010,4 0,0
27.02.2020 16:00:00 11,1 9,7 9 5 31 17 WNW 1010,5 3,0
27.02.2020 15:00:00 9,9 9,0 8 4 16 9 W 1011,4 2,0
27.02.2020 14:00:00 9,3 7,6 5 3 18 10 W 1012,7 0,6
27.02.2020 13:00:00 9,6 6,3 11 6 24 13 W 1014,5 -
27.02.2020 12:00:00 9,9 4,7 11 6 26 14 W 1015,3 0,2
27.02.2020 11:00:00 11,2 -0,6 11 6 24 13 W 1015,6 0,0
27.02.2020 10:00:00 10,0 -2,3 9 5 22 12 W 1016,1 0,0
27.02.2020 09:00:00 8,5 -2,8 8 4 16 9 WNW 1016,2 0,0
27.02.2020 08:00:00 7,5 -2,5 9 5 16 9 WSW 1016,1 0,0
27.02.2020 07:00:00 7,2 -3,4 8 4 22 12 W 1015,3 -
27.02.2020 06:00:00 7,5 -3,7 11 6 31 17 W 1015,6 0,0
27.02.2020 05:00:00 8,0 -4,2 16 9 35 19 WNW 1015,2 0,0
27.02.2020 04:00:00 8,2 -4,0 16 9 35 19 W 1015,6 0,0
27.02.2020 03:00:00 8,5 -4,7 18 10 39 21 W 1016,0 0,0
27.02.2020 02:00:00 8,7 -4,9 15 8 31 17 W 1016,0 0,0
27.02.2020 01:00:00 8,7 -5,6 9 5 37 20 W 1015,8 -
27.02.2020 00:00:00 9,4 -6,5 11 6 46 25 W 1015,6 0,0
26.02.2020 23:00:00 9,5 -6,8 28 15 61 33 WNW 1014,7 0,0
26.02.2020 22:00:00 9,5 -6,8 21 11 48 26 WNW 1015,2 0,0
26.02.2020 21:00:00 9,8 -7,0 21 11 42 23 WNW 1014,9 0,0
26.02.2020 20:00:00 10,4 -7,4 22 12 42 23 W 1014,3 0,0
26.02.2020 19:00:00 10,6 -5,4 21 11 42 23 W 1013,6 -
26.02.2020 18:00:00 11,6 -5,9 21 11 67 36 WNW 1012,3 0,0
26.02.2020 17:00:00 12,7 -5,9 29 16 74 40 WNW 1011,3 0,0
26.02.2020 16:00:00 13,4 -6,3 35 19 70 38 W 1010,3 0,0
26.02.2020 15:00:00 12,2 -4,9 35 19 83 45 WNW 1010,3 0,0
26.02.2020 14:00:00 14,3 -2,6 28 15 70 38 WNW 1009,6 0,0
26.02.2020 13:00:00 13,5 -1,7 29 16 59 32 WNW 1010,2 -
26.02.2020 12:00:00 13,0 0,4 18 10 65 35 WNW 1010,4 0,0
26.02.2020 11:00:00 13,2 2,7 28 15 65 35 W 1009,4 0,0
26.02.2020 10:00:00 12,4 1,4 26 14 59 32 W 1009,6 0,0
26.02.2020 09:00:00 11,7 2,2 18 10 34 18 W 1009,5 0,0
26.02.2020 08:00:00 10,7 3,0 16 9 34 18 WNW 1009,5 0,0
26.02.2020 07:00:00 10,5 4,0 13 7 39 21 WNW 1009,2 -
26.02.2020 06:00:00 10,9 4,1 16 9 42 23 WNW 1009,3 0,0
26.02.2020 05:00:00 11,2 3,9 22 12 48 26 W 1009,8 0,0
26.02.2020 04:00:00 11,4 3,7 15 8 41 22 W 1010,2 0,0
26.02.2020 03:00:00 11,8 1,1 22 12 50 27 W 1010,3 0,0
26.02.2020 02:00:00 12,3 1,9 22 12 48 26 WNW 1010,0 0,0
26.02.2020 01:00:00 12,8 3,7 26 14 57 31 W 1010,0 -
26.02.2020 00:00:00 13,8 5,2 22 12 59 32 W 1009,4 0,0
25.02.2020 23:00:00 14,3 5,4 22 12 44 24 W 1010,0 0,0
25.02.2020 22:00:00 13,6 6,5 18 10 41 22 W 1010,0 0,0
25.02.2020 21:00:00 13,0 7,0 13 7 37 20 W 1010,5 0,0
25.02.2020 20:00:00 12,9 7,8 15 8 35 19 W 1010,8 0,0
25.02.2020 19:00:00 13,1 9,5 21 11 42 23 W 1010,6 -
25.02.2020 18:00:00 13,8 8,6 24 13 52 28 W 1010,1 0,0
25.02.2020 17:00:00 14,9 7,7 22 12 50 27 W 1010,0 0,0
25.02.2020 16:00:00 16,4 5,9 18 10 39 21 W 1010,1 0,0
25.02.2020 15:00:00 17,6 3,5 21 11 44 24 W 1010,5 0,0
25.02.2020 14:00:00 16,9 4,9 22 12 41 22 W 1010,9 0,0
25.02.2020 13:00:00 17,0 3,6 16 9 41 22 W 1011,9 -
25.02.2020 12:00:00 15,5 6,0 16 9 39 21 W 1012,7 0,0
25.02.2020 11:00:00 15,3 7,1 22 12 42 23 W 1013,3 0,0
25.02.2020 10:00:00 15,6 3,4 15 8 28 15 W 1013,4 0,0
25.02.2020 09:00:00 10,9 6,2 8 4 15 8 W 1013,8 0,0
25.02.2020 08:00:00 5,3 4,9 0 0 5 3 N 1013,9 0,0
25.02.2020 07:00:00 4,4 3,8 2 1 5 3 NNW 1014,0 -
25.02.2020 06:00:00 4,9 4,3 2 1 8 4 NNW 1014,3 0,0
25.02.2020 05:00:00 5,4 4,7 0 0 5 3 N 1014,4 0,2
25.02.2020 04:00:00 6,3 5,4 4 2 8 4 NE 1014,8 0,0
25.02.2020 03:00:00 6,6 5,5 2 1 4 2 NW 1015,5 0,0
25.02.2020 02:00:00 7,5 5,8 2 1 5 3 N 1016,6 0,0
25.02.2020 01:00:00 8,5 5,2 2 1 9 5 W 1017,3 -
25.02.2020 00:00:00 9,3 6,0 2 1 8 4 E 1017,9 0,0
24.02.2020 23:00:00 9,4 7,3 4 2 8 4 WNW 1018,4 0,0
24.02.2020 22:00:00 10,7 9,0 4 2 8 4 WNW 1018,8 0,0
24.02.2020 21:00:00 11,8 9,2 0 0 16 9 N 1019,0 0,0
24.02.2020 20:00:00 14,0 8,4 4 2 16 9 WNW 1018,8 0,0
24.02.2020 19:00:00 15,2 8,0 8 4 34 18 WNW 1018,6 -
24.02.2020 18:00:00 16,6 8,3 16 9 34 18 W 1018,3 0,0
24.02.2020 17:00:00 17,6 8,7 16 9 41 22 W 1018,7 0,0
24.02.2020 16:00:00 17,9 10,5 13 7 29 16 W 1019,2 0,0
24.02.2020 15:00:00 20,4 10,2 9 5 21 11 W 1019,4 0,0
24.02.2020 14:00:00 16,6 11,3 8 4 22 12 ESE 1020,6 0,0
24.02.2020 13:00:00 15,5 11,5 16 9 24 13 SE 1021,8 -
24.02.2020 12:00:00 15,3 11,7 11 6 16 9 ESE 1022,3 0,0
24.02.2020 11:00:00 14,9 11,3 11 6 16 9 ESE 1022,6 0,0
24.02.2020 10:00:00 15,2 10,0 5 3 13 7 SSE 1022,6 0,0
24.02.2020 09:00:00 13,6 9,0 8 4 13 7 E 1022,5 0,0
24.02.2020 08:00:00 11,8 8,6 5 3 15 8 ENE 1022,3 0,0
24.02.2020 07:00:00 11,5 7,8 8 4 16 9 ENE 1021,9 -
24.02.2020 06:00:00 11,9 4,1 8 4 18 10 WNW 1022,2 0,0
24.02.2020 05:00:00 12,6 6,2 8 4 16 9 WNW 1022,4 0,0
24.02.2020 04:00:00 13,9 4,5 11 6 22 12 W 1022,7 0,0
24.02.2020 03:00:00 14,8 4,5 9 5 22 12 WNW 1023,2 0,0
24.02.2020 02:00:00 15,4 5,6 13 7 28 15 WNW 1023,8 0,0
24.02.2020 01:00:00 15,9 4,6 13 7 24 13 W 1024,1 -
24.02.2020 00:00:00 15,4 5,3 9 5 18 10 WSW 1024,7 0,0
23.02.2020 23:00:00 13,4 9,8 8 4 29 16 W 1025,3 0,0
23.02.2020 22:00:00 14,0 10,2 15 8 34 18 W 1025,7 0,0
23.02.2020 21:00:00 15,5 5,4 13 7 31 17 W 1026,0 0,0
23.02.2020 20:00:00 15,5 5,1 16 9 34 18 W 1026,2 0,0
23.02.2020 19:00:00 14,1 8,5 16 9 41 22 W 1026,3 -
23.02.2020 18:00:00 14,4 8,1 21 11 42 23 W 1026,2 0,0
23.02.2020 17:00:00 15,2 7,5 22 12 50 27 W 1026,4 0,0
23.02.2020 16:00:00 16,2 6,9 22 12 46 25 W 1026,8 0,0
23.02.2020 15:00:00 16,3 9,0 18 10 39 21 W 1026,9 0,0
23.02.2020 14:00:00 16,6 8,3 22 12 41 22 W 1027,5 0,0
23.02.2020 13:00:00 15,8 8,5 21 11 41 22 W 1028,6 -
23.02.2020 12:00:00 15,8 7,8 18 10 39 21 W 1029,5 0,0
23.02.2020 11:00:00 15,1 7,4 15 8 31 17 WSW 1030,2 0,0
23.02.2020 10:00:00 13,6 6,9 18 10 35 19 W 1030,2 0,0
23.02.2020 09:00:00 12,3 7,2 13 7 26 14 W 1030,4 0,0
23.02.2020 08:00:00 8,8 5,9 8 4 16 9 W 1030,4 0,0
23.02.2020 07:00:00 8,6 5,9 9 5 16 9 W 1030,3 -
23.02.2020 06:00:00 8,8 6,8 8 4 16 9 W 1030,5 0,0
23.02.2020 05:00:00 9,6 7,0 9 5 16 9 W 1030,5 0,0
23.02.2020 04:00:00 9,9 7,0 8 4 18 10 W 1030,9 0,0
23.02.2020 03:00:00 9,3 7,2 8 4 21 11 W 1031,2 0,0
23.02.2020 02:00:00 9,9 7,5 11 6 22 12 W 1031,7 0,0
23.02.2020 01:00:00 10,2 8,0 11 6 18 10 W 1032,3 -
23.02.2020 00:00:00 10,3 8,2 11 6 18 10 W 1032,7 0,2
22.02.2020 23:00:00 10,1 8,2 5 3 11 6 W 1033,2 0,0
22.02.2020 22:00:00 10,8 8,6 5 3 15 8 W 1033,2 0,0
22.02.2020 21:00:00 11,5 9,2 8 4 18 10 W 1033,2 0,0
22.02.2020 20:00:00 12,0 9,4 9 5 16 9 W 1033,0 0,0
22.02.2020 19:00:00 12,7 9,7 8 4 16 9 W 1032,7 -

tt = Température de l'air
td = dewpoint
ff = Vitesse du vent
fx = gusts
dd = Direction du vent
ppp = reduced air pressure
rr = Quantités de précipitations

stations d'obs. à proximité